Time;durP1;ratioP1;P1;durP2;ratioP2;P2;SDS_P1;SDS_P2;PMS_P1;PMS_P2;Temp;Humidity;BMP_temperature;BMP_pressure;BME280_temperature;BME280_humidity;BME280_pressure;Samples;Min_cycle;Max_cycle;Signal;HPM_P1;HPM_P2
2021/12/14 00:02:07;;;;;;;10.48;6.63;;;8.90;99.90;;;;;;5046395;28;20074;-60
2021/12/14 00:04:35;;;;;;;10.02;7.00;;;8.90;99.90;;;;;;5046805;28;20029;-64
2021/12/14 00:07:05;;;;;;;13.25;8.48;;;8.90;99.90;;;;;;5030925;28;20061;-69
2021/12/14 00:09:33;;;;;;;10.68;6.63;;;8.90;99.90;;;;;;5031640;28;20033;-59
2021/12/14 00:12:37;;;;;;;12.65;7.13;;;8.80;99.90;;;;;;5029644;28;20032;-62
2021/12/14 00:15:11;;;;;;;15.93;8.32;;;8.80;99.90;;;;;;5030913;28;20037;-59
2021/12/14 00:17:55;;;;;;;10.23;6.85;;;8.80;99.90;;;;;;5031377;28;20033;-61
2021/12/14 00:20:33;;;;;;;10.85;7.97;;;8.80;99.90;;;;;;5030583;28;20037;-60
2021/12/14 00:25:29;;;;;;;11.38;8.23;;;8.80;99.90;;;;;;5035400;28;20033;-59
2021/12/14 00:27:58;;;;;;;11.95;7.90;;;8.80;99.90;;;;;;5035101;28;20088;-64
2021/12/14 00:30:23;;;;;;;15.43;8.65;;;8.80;99.90;;;;;;5033640;28;20074;-60
2021/12/14 00:32:49;;;;;;;18.13;8.77;;;8.80;99.90;;;;;;5034862;28;20112;-58
2021/12/14 00:35:15;;;;;;;16.27;9.13;;;8.90;99.90;;;;;;5034204;28;20032;-61
2021/12/14 00:37:45;;;;;;;13.27;8.45;;;8.90;99.90;;;;;;5035077;28;20077;-61
2021/12/14 00:40:25;;;;;;;15.20;9.20;;;8.90;99.90;;;;;;5033184;28;20068;-68
2021/12/14 00:42:52;;;;;;;14.30;9.25;;;8.80;99.90;;;;;;5034960;28;20017;-60
2021/12/14 00:45:19;;;;;;;14.68;8.77;;;8.90;99.90;;;;;;5034190;28;20030;-62
2021/12/14 00:47:46;;;;;;;13.52;9.10;;;8.80;99.90;;;;;;5033616;28;20034;-58
2021/12/14 00:50:12;;;;;;;16.70;8.73;;;8.70;99.90;;;;;;5033848;28;20467;-59
2021/12/14 00:52:40;;;;;;;15.10;8.57;;;8.80;99.90;;;;;;5033368;28;20033;-65
2021/12/14 00:55:10;;;;;;;13.95;9.60;;;8.80;99.90;;;;;;5032808;28;20057;-64
2021/12/14 00:57:37;;;;;;;16.13;9.63;;;8.70;99.90;;;;;;5034364;28;20036;-61
2021/12/14 01:00:10;;;;;;;14.05;9.05;;;8.80;99.90;;;;;;5032564;28;20435;-62
2021/12/14 01:02:36;;;;;;;14.30;9.30;;;8.70;99.90;;;;;;5034357;28;20041;-59
2021/12/14 01:05:11;;;;;;;14.45;9.50;;;8.80;99.90;;;;;;5033750;28;20029;-59
2021/12/14 01:07:37;;;;;;;15.40;11.05;;;8.80;99.90;;;;;;5032755;28;20037;-61
2021/12/14 01:10:11;;;;;;;13.13;9.18;;;8.80;99.90;;;;;;5034148;28;20041;-61
2021/12/14 01:13:00;;;;;;;15.88;9.55;;;8.80;99.90;;;;;;5034200;28;20037;-66
2021/12/14 01:21:28;;;;;;;13.68;9.57;;;8.70;99.90;;;;;;5033661;28;20033;-61
2021/12/14 01:24:05;;;;;;;16.02;10.10;;;8.70;99.90;;;;;;5034226;28;20036;-63
2021/12/14 01:26:33;;;;;;;17.33;9.70;;;8.80;99.90;;;;;;5034390;28;20030;-59
2021/12/14 01:29:02;;;;;;;20.40;10.00;;;8.80;99.90;;;;;;5032555;28;20463;-56
2021/12/14 01:31:35;;;;;;;17.00;10.38;;;8.80;99.90;;;;;;5033714;28;20378;-59
2021/12/14 01:34:05;;;;;;;15.05;9.75;;;8.90;99.90;;;;;;5033204;28;20032;-57
2021/12/14 01:39:34;;;;;;;15.38;10.63;;;8.80;99.90;;;;;;5033368;28;20036;-63
2021/12/14 01:42:05;;;;;;;13.45;9.85;;;8.90;99.90;;;;;;5034031;28;20029;-58
2021/12/14 01:44:37;;;;;;;14.45;9.82;;;8.90;99.90;;;;;;5033510;28;20036;-57
2021/12/14 01:47:10;;;;;;;15.20;9.80;;;9.00;99.90;;;;;;5033456;28;20034;-69
2021/12/14 01:49:36;;;;;;;14.35;10.13;;;9.00;99.90;;;;;;5033630;28;20025;-60
2021/12/14 01:52:11;;;;;;;13.85;9.25;;;9.00;99.90;;;;;;5033835;28;20034;-56
2021/12/14 01:54:41;;;;;;;15.45;9.73;;;9.00;99.90;;;;;;5033819;28;20073;-66
2021/12/14 01:57:13;;;;;;;12.70;9.00;;;9.10;99.90;;;;;;5033119;28;20460;-66
2021/12/14 01:59:42;;;;;;;15.88;8.80;;;9.00;99.90;;;;;;5032447;28;20065;-63
2021/12/14 02:02:28;;;;;;;12.40;8.75;;;8.90;99.90;;;;;;5032902;28;20029;-64
2021/12/14 02:04:55;;;;;;;12.45;9.18;;;9.00;99.90;;;;;;5033873;28;20366;-67
2021/12/14 02:07:22;;;;;;;14.65;9.02;;;9.10;99.90;;;;;;5048109;28;20029;-63
2021/12/14 02:10:04;;;;;;;18.30;10.00;;;8.90;99.90;;;;;;5032078;28;20034;-60
2021/12/14 02:12:31;;;;;;;13.65;9.35;;;8.90;99.90;;;;;;5033488;28;20021;-57
2021/12/14 02:15:23;;;;;;;18.67;9.27;;;8.80;99.90;;;;;;5033222;28;20116;-66
2021/12/14 02:17:51;;;;;;;17.48;9.32;;;8.90;99.90;;;;;;5031822;28;20410;-62
2021/12/14 02:20:22;;;;;;;15.18;10.02;;;8.80;99.90;;;;;;5032601;28;20028;-66
2021/12/14 02:22:48;;;;;;;14.00;10.13;;;8.80;99.90;;;;;;5032798;28;20036;-61
2021/12/14 02:25:14;;;;;;;15.52;9.07;;;8.80;99.90;;;;;;5030946;28;20465;-60
2021/12/14 02:27:44;;;;;;;15.73;9.50;;;8.80;99.90;;;;;;5031606;28;20041;-65
2021/12/14 02:30:14;;;;;;;14.60;9.90;;;8.80;99.90;;;;;;5030975;28;20029;-58
2021/12/14 02:32:41;;;;;;;12.45;9.60;;;8.90;99.90;;;;;;5032904;28;20033;-57
2021/12/14 02:35:10;;;;;;;12.75;9.55;;;8.90;99.90;;;;;;5031894;28;20033;-70
2021/12/14 02:37:49;;;;;;;19.90;10.52;;;8.90;99.90;;;;;;5032936;28;20022;-58
2021/12/14 02:40:20;;;;;;;15.23;10.57;;;8.90;99.90;;;;;;5032231;28;20029;-66
2021/12/14 02:42:50;;;;;;;17.13;10.63;;;8.90;99.90;;;;;;5032659;28;20037;-65
2021/12/14 02:45:21;;;;;;;13.05;10.43;;;8.80;99.90;;;;;;5032253;28;20108;-55
2021/12/14 02:47:47;;;;;;;14.70;9.93;;;8.70;99.90;;;;;;5032657;28;20038;-58
2021/12/14 02:50:13;;;;;;;12.23;9.73;;;8.80;99.90;;;;;;5031916;28;20029;-55
2021/12/14 02:52:40;;;;;;;14.82;9.85;;;8.80;99.90;;;;;;5031103;28;20029;-55
2021/12/14 02:55:18;;;;;;;16.58;11.18;;;8.70;99.90;;;;;;5032347;28;20021;-56
2021/12/14 02:57:51;;;;;;;18.08;11.00;;;8.70;99.90;;;;;;5032101;28;20474;-66
2021/12/14 03:00:28;;;;;;;13.18;10.00;;;8.80;99.90;;;;;;5031853;28;20098;-66
2021/12/14 03:02:54;;;;;;;13.38;9.55;;;8.70;99.90;;;;;;5032926;28;20036;-59
2021/12/14 03:05:27;;;;;;;16.77;11.75;;;8.80;99.90;;;;;;5031681;28;20030;-59
2021/12/14 03:08:17;;;;;;;13.82;10.30;;;8.60;99.90;;;;;;5030987;28;20037;-55
2021/12/14 03:10:55;;;;;;;12.93;9.70;;;8.50;99.90;;;;;;5032220;28;20029;-59
2021/12/14 03:13:24;;;;;;;18.42;11.18;;;8.40;99.90;;;;;;5032076;28;20032;-65
2021/12/14 03:15:53;;;;;;;16.60;11.55;;;8.50;99.90;;;;;;5029475;28;20036;-56
2021/12/14 03:18:27;;;;;;;20.90;11.90;;;8.50;99.90;;;;;;5028107;28;20052;-56
2021/12/14 03:21:01;;;;;;;15.32;10.23;;;8.50;99.90;;;;;;5030716;28;20108;-57
2021/12/14 03:23:36;;;;;;;13.70;10.50;;;8.50;99.90;;;;;;5030253;28;20025;-61
2021/12/14 03:26:05;;;;;;;16.35;10.32;;;8.60;99.90;;;;;;5031670;28;20045;-62
2021/12/14 03:28:33;;;;;;;18.08;11.18;;;8.50;99.90;;;;;;5031123;28;20444;-63
2021/12/14 03:30:58;;;;;;;18.67;11.30;;;8.40;99.90;;;;;;5031948;28;20044;-60
2021/12/14 03:33:29;;;;;;;17.58;10.52;;;8.40;99.90;;;;;;5031067;28;20026;-60
2021/12/14 03:36:03;;;;;;;16.37;11.37;;;8.40;99.90;;;;;;5031620;28;20021;-58
2021/12/14 03:38:34;;;;;;;16.30;11.20;;;8.50;99.90;;;;;;5031342;28;20045;-54
2021/12/14 03:41:06;;;;;;;16.63;11.45;;;8.40;99.90;;;;;;5030601;28;20022;-56
2021/12/14 03:43:32;;;;;;;;;;;8.50;99.90;;;;;;5032025;28;20493;-58
2021/12/14 03:45:58;;;;;;;21.70;12.05;;;8.50;99.90;;;;;;5031922;28;19917;-62
2021/12/14 03:48:27;;;;;;;17.83;12.48;;;8.50;99.90;;;;;;5030963;28;20044;-62
2021/12/14 03:50:54;;;;;;;19.88;13.13;;;8.50;99.90;;;;;;5031730;28;20030;-59
2021/12/14 03:53:21;;;;;;;19.17;12.35;;;8.30;99.90;;;;;;5031086;28;20022;-56
2021/12/14 03:55:55;;;;;;;19.42;11.90;;;8.40;99.90;;;;;;5032174;28;20108;-59
2021/12/14 03:58:25;;;;;;;17.95;11.38;;;8.40;99.90;;;;;;5035647;28;20109;-58
2021/12/14 04:00:56;;;;;;;21.13;12.38;;;8.30;99.90;;;;;;5034164;28;20067;-63
2021/12/14 04:03:25;;;;;;;18.45;13.00;;;8.30;99.90;;;;;;5034926;28;20129;-56
2021/12/14 04:05:52;;;;;;;19.30;12.25;;;8.40;99.90;;;;;;5035612;28;20112;-62
2021/12/14 04:08:22;;;;;;;17.45;12.60;;;8.50;99.90;;;;;;5035107;28;20033;-66
2021/12/14 04:10:49;;;;;;;15.60;12.23;;;8.50;99.90;;;;;;5035533;28;20037;-63
2021/12/14 04:13:18;;;;;;;18.98;12.02;;;8.40;99.90;;;;;;5034926;28;20179;-56
2021/12/14 04:15:44;;;;;;;22.23;12.35;;;8.40;99.90;;;;;;5035675;28;20026;-67
2021/12/14 04:18:10;;;;;;;23.15;12.82;;;8.20;99.90;;;;;;5035368;28;20045;-67
2021/12/14 04:20:39;;;;;;;19.05;13.68;;;8.30;99.90;;;;;;5033723;28;20112;-54
2021/12/14 04:23:16;;;;;;;19.50;12.60;;;8.20;99.90;;;;;;5033855;28;20114;-59
2021/12/14 04:25:42;;;;;;;19.60;12.85;;;8.20;99.90;;;;;;5035316;28;20063;-59
2021/12/14 04:28:12;;;;;;;18.17;12.10;;;8.20;99.90;;;;;;5035371;28;20040;-63
2021/12/14 04:30:38;;;;;;;21.33;13.65;;;8.30;99.90;;;;;;5034154;28;20131;-61
2021/12/14 04:33:09;;;;;;;22.35;13.38;;;8.30;99.90;;;;;;5033491;28;20025;-65
2021/12/14 04:35:38;;;;;;;21.20;14.00;;;8.20;99.90;;;;;;5034495;28;20032;-66
2021/12/14 04:38:12;;;;;;;23.27;13.98;;;8.20;99.90;;;;;;5033415;28;20093;-66
2021/12/14 04:54:16;;;;;;;22.27;14.93;;;8.00;99.90;;;;;;5033978;28;20032;-57
2021/12/14 04:56:45;;;;;;;21.80;14.90;;;8.10;99.90;;;;;;5033601;28;20451;-56
2021/12/14 04:59:15;;;;;;;24.52;15.35;;;8.00;99.90;;;;;;5033477;28;20454;-63
2021/12/14 05:01:44;;;;;;;24.10;16.10;;;8.00;99.90;;;;;;5034257;28;20526;-65
2021/12/14 05:04:15;;;;;;;25.77;16.15;;;8.10;99.90;;;;;;5033009;28;20026;-62
2021/12/14 05:06:57;;;;;;;25.38;17.40;;;8.10;99.90;;;;;;5034127;28;20086;-61
2021/12/14 05:09:35;;;;;;;25.38;16.45;;;8.10;99.90;;;;;;5033250;28;20029;-60
2021/12/14 05:12:05;;;;;;;31.13;18.13;;;8.20;99.90;;;;;;5034482;28;20053;-56
2021/12/14 05:14:33;;;;;;;26.75;16.88;;;8.20;99.90;;;;;;5033686;28;20448;-58
2021/12/14 05:17:02;;;;;;;33.40;18.17;;;8.20;99.90;;;;;;5034685;28;20037;-61
2021/12/14 05:19:31;;;;;;;23.60;16.63;;;8.20;99.90;;;;;;5031830;28;20470;-61
2021/12/14 05:22:22;;;;;;;30.75;18.92;;;8.30;99.90;;;;;;5032468;28;20103;-60
2021/12/14 05:25:00;;;;;;;28.05;17.52;;;8.30;99.90;;;;;;5034109;28;20034;-61
2021/12/14 05:27:35;;;;;;;28.85;18.23;;;8.10;99.90;;;;;;5033584;28;20131;-60
2021/12/14 05:30:27;;;;;;;26.30;17.60;;;8.10;99.90;;;;;;5032912;28;20045;-60
2021/12/14 05:33:06;;;;;;;34.13;19.00;;;8.00;99.90;;;;;;5032507;28;20029;-61
2021/12/14 05:35:33;;;;;;;31.27;18.25;;;8.10;99.90;;;;;;5033397;28;20033;-61
2021/12/14 05:38:01;;;;;;;31.38;19.23;;;8.10;99.90;;;;;;5032489;28;20029;-60
2021/12/14 05:43:12;;;;;;;31.63;20.23;;;8.20;99.90;;;;;;5033765;28;20026;-60
2021/12/14 05:45:41;;;;;;;28.45;18.27;;;8.20;99.90;;;;;;5032801;28;20025;-61
2021/12/14 05:48:10;;;;;;;30.70;20.20;;;8.20;99.90;;;;;;5033170;28;20044;-61
2021/12/14 05:50:43;;;;;;;30.55;19.30;;;8.20;99.90;;;;;;5031519;28;20352;-60
2021/12/14 05:53:16;;;;;;;29.10;18.63;;;8.20;99.90;;;;;;5031897;28;20108;-60
2021/12/14 05:55:41;;;;;;;32.83;19.67;;;8.20;99.90;;;;;;5032733;28;20052;-62
2021/12/14 05:58:17;;;;;;;29.67;19.17;;;8.20;99.90;;;;;;5032115;28;20489;-60
2021/12/14 06:00:47;;;;;;;32.70;21.13;;;8.20;99.90;;;;;;5033303;28;20329;-60
2021/12/14 06:03:45;;;;;;;32.40;20.23;;;8.20;99.90;;;;;;5032015;28;20095;-60
2021/12/14 06:06:21;;;;;;;36.80;20.73;;;8.30;99.90;;;;;;5031802;28;20458;-61
2021/12/14 06:08:47;;;;;;;32.40;19.27;;;8.20;99.90;;;;;;5033333;28;20033;-60
2021/12/14 06:11:25;;;;;;;33.67;20.65;;;8.30;99.90;;;;;;5033026;28;20450;-60
2021/12/14 06:13:52;;;;;;;31.40;20.20;;;8.30;99.90;;;;;;5033177;28;20108;-61
2021/12/14 06:16:27;;;;;;;37.85;20.58;;;8.30;99.90;;;;;;5032690;28;20037;-61
2021/12/14 06:18:54;;;;;;;32.20;20.67;;;8.40;99.90;;;;;;5031057;28;20049;-61
2021/12/14 06:21:33;;;;;;;30.25;19.50;;;8.30;99.90;;;;;;5032018;28;20079;-68
2021/12/14 06:24:07;;;;;;;30.77;20.27;;;8.40;99.90;;;;;;5032601;28;20574;-60
2021/12/14 06:26:48;;;;;;;31.92;20.75;;;8.50;99.90;;;;;;5030976;28;20033;-60
2021/12/14 06:29:17;;;;;;;33.40;20.63;;;8.50;99.90;;;;;;5031528;28;20037;-61
2021/12/14 06:31:45;;;;;;;38.40;21.50;;;8.60;99.90;;;;;;5032007;28;20029;-61
2021/12/14 06:34:29;;;;;;;30.92;19.42;;;8.60;99.90;;;;;;5032562;28;20018;-60
2021/12/14 06:37:03;;;;;;;32.53;21.17;;;8.50;99.90;;;;;;5032570;28;20025;-61
2021/12/14 06:39:30;;;;;;;33.67;21.10;;;8.40;99.90;;;;;;5031820;28;20033;-61
2021/12/14 06:42:06;;;;;;;32.95;19.55;;;8.40;99.90;;;;;;5030566;28;20383;-61
2021/12/14 06:44:32;;;;;;;40.05;20.67;;;8.50;99.90;;;;;;5029926;28;20033;-61
2021/12/14 06:46:58;;;;;;;34.42;21.88;;;8.40;99.90;;;;;;5030603;28;20125;-60
2021/12/14 06:49:24;;;;;;;30.77;20.90;;;8.40;99.90;;;;;;5031268;28;20475;-61
2021/12/14 06:51:53;;;;;;;34.85;21.42;;;8.30;99.90;;;;;;5030080;28;20031;-59
2021/12/14 06:54:25;;;;;;;33.33;21.58;;;8.20;99.90;;;;;;5030188;28;20116;-62
2021/12/14 06:56:57;;;;;;;32.47;21.38;;;8.20;99.90;;;;;;5031560;28;20034;-60
2021/12/14 06:59:23;;;;;;;32.42;20.23;;;8.30;99.90;;;;;;5029960;28;20068;-60
2021/12/14 07:01:52;;;;;;;35.85;21.60;;;8.20;99.90;;;;;;5031512;28;20033;-57
2021/12/14 07:04:24;;;;;;;32.00;20.55;;;8.30;99.90;;;;;;5030526;28;20029;-60
2021/12/14 07:06:54;;;;;;;33.10;20.20;;;8.20;99.90;;;;;;5030321;28;20057;-59
2021/12/14 07:09:22;;;;;;;35.15;21.02;;;8.20;99.90;;;;;;5030440;28;20059;-58
2021/12/14 07:12:00;;;;;;;33.85;20.17;;;8.20;99.90;;;;;;5030046;28;20025;-61
2021/12/14 07:14:31;;;;;;;30.42;20.08;;;8.30;99.90;;;;;;5028259;28;20112;-61
2021/12/14 07:17:18;;;;;;;36.95;21.80;;;8.10;99.90;;;;;;5028659;28;20042;-61
2021/12/14 07:19:53;;;;;;;30.08;19.55;;;8.20;99.90;;;;;;5011503;28;20057;-61
2021/12/14 07:22:31;;;;;;;33.58;21.33;;;8.30;99.90;;;;;;5029090;28;20438;-61
2021/12/14 07:25:25;;;;;;;30.50;21.00;;;8.20;99.90;;;;;;5028913;28;20037;-62
2021/12/14 07:27:56;;;;;;;34.65;20.38;;;8.10;99.90;;;;;;5028933;28;20039;-61
2021/12/14 07:30:57;;;;;;;32.83;20.05;;;8.20;99.90;;;;;;5028356;28;20151;-60
2021/12/14 07:33:28;;;;;;;33.58;20.00;;;8.20;99.90;;;;;;5012139;28;20048;-58
2021/12/14 07:35:57;;;;;;;33.38;21.38;;;8.20;99.90;;;;;;5028845;28;20087;-60
2021/12/14 07:38:45;;;;;;;29.42;20.98;;;8.20;99.90;;;;;;5028759;28;20483;-61
2021/12/14 07:41:20;;;;;;;32.05;19.83;;;8.20;99.90;;;;;;5028884;28;20037;-59
2021/12/14 07:43:57;;;;;;;35.60;20.65;;;8.30;99.90;;;;;;5028603;28;20025;-60
2021/12/14 07:46:36;;;;;;;29.73;19.20;;;8.20;99.90;;;;;;5030385;28;20069;-61
2021/12/14 07:49:05;;;;;;;31.63;20.25;;;8.10;99.90;;;;;;5031042;28;20029;-60
2021/12/14 07:51:34;;;;;;;31.42;20.55;;;8.20;99.90;;;;;;5030252;28;20025;-60
2021/12/14 07:54:08;;;;;;;32.33;20.35;;;8.20;99.90;;;;;;5029484;28;20439;-61
2021/12/14 07:56:50;;;;;;;33.80;21.23;;;8.10;99.90;;;;;;5030329;28;20140;-62
2021/12/14 07:59:29;;;;;;;34.53;22.33;;;8.10;99.90;;;;;;5030727;28;20479;-62
2021/12/14 08:02:31;;;;;;;30.85;19.92;;;8.00;99.90;;;;;;5030997;28;20116;-61
2021/12/14 08:05:45;;;;;;;31.17;19.27;;;8.10;99.90;;;;;;5031045;28;20029;-61
2021/12/14 08:08:30;;;;;;;34.35;20.90;;;8.20;99.90;;;;;;5018450;28;20111;-61
2021/12/14 08:11:09;;;;;;;30.73;20.35;;;8.10;99.90;;;;;;5030839;28;20099;-61
2021/12/14 08:13:46;;;;;;;29.27;19.85;;;8.20;99.90;;;;;;5029170;28;20022;-61
2021/12/14 08:16:12;;;;;;;32.88;20.25;;;8.20;99.90;;;;;;5031391;28;20032;-62
2021/12/14 08:18:38;;;;;;;34.47;20.83;;;8.20;99.90;;;;;;5030402;28;20395;-61
2021/12/14 08:21:17;;;;;;;34.10;20.65;;;8.20;99.90;;;;;;5029615;28;20029;-60
2021/12/14 08:23:58;;;;;;;30.73;20.13;;;8.20;99.90;;;;;;5030581;28;20033;-61
2021/12/14 08:26:28;;;;;;;41.67;21.83;;;8.20;99.90;;;;;;5029717;28;20124;-60
2021/12/14 08:29:04;;;;;;;37.67;21.02;;;8.20;99.90;;;;;;5030999;28;20037;-61
2021/12/14 08:31:35;;;;;;;38.63;22.50;;;8.10;99.90;;;;;;5030096;28;20108;-60
2021/12/14 08:34:05;;;;;;;31.15;19.95;;;8.10;99.90;;;;;;5029736;28;20120;-59
2021/12/14 08:36:40;;;;;;;35.00;23.15;;;8.20;99.90;;;;;;5028932;28;20112;-61
2021/12/14 08:39:14;;;;;;;35.58;22.23;;;8.20;99.90;;;;;;5031359;28;20029;-61
2021/12/14 08:41:48;;;;;;;32.55;20.08;;;8.20;99.90;;;;;;5030644;28;20032;-61
2021/12/14 08:44:20;;;;;;;31.52;21.33;;;8.10;99.90;;;;;;5034661;28;20026;-60
2021/12/14 08:46:50;;;;;;;33.38;20.90;;;8.10;99.90;;;;;;5032333;28;20069;-61
2021/12/14 08:49:19;;;;;;;29.77;20.58;;;8.20;99.90;;;;;;5034496;28;20045;-61
2021/12/14 08:51:49;;;;;;;36.00;22.00;;;8.10;99.90;;;;;;5032188;28;20029;-61
2021/12/14 08:54:25;;;;;;;31.13;20.95;;;8.10;99.90;;;;;;5032952;28;20451;-61
2021/12/14 08:56:50;;;;;;;33.15;21.85;;;8.20;99.90;;;;;;5033794;28;20483;-63
2021/12/14 08:59:16;;;;;;;34.70;22.27;;;8.20;99.90;;;;;;5032906;28;20064;-61
2021/12/14 09:01:43;;;;;;;30.65;21.52;;;8.20;99.90;;;;;;5033595;28;20068;-60
2021/12/14 09:04:30;;;;;;;34.13;22.50;;;8.20;99.90;;;;;;5032671;28;20091;-60
2021/12/14 09:07:02;;;;;;;35.95;24.10;;;8.20;99.90;;;;;;5034051;28;20029;-60
2021/12/14 09:09:28;;;;;;;33.80;23.25;;;8.20;99.90;;;;;;5032995;28;20041;-60
2021/12/14 09:12:18;;;;;;;33.58;21.98;;;8.20;99.90;;;;;;5032236;28;20021;-61
2021/12/14 09:14:46;;;;;;;30.75;21.52;;;8.20;99.90;;;;;;5033697;28;20030;-61
2021/12/14 09:17:15;;;;;;;33.47;21.70;;;8.20;99.90;;;;;;5032773;28;20060;-60
2021/12/14 09:19:58;;;;;;;34.33;21.10;;;8.30;99.90;;;;;;5031638;28;20065;-61
2021/12/14 09:22:31;;;;;;;37.53;22.92;;;8.40;99.90;;;;;;5034298;28;20087;-60
2021/12/14 09:24:58;;;;;;;36.72;22.27;;;8.30;99.90;;;;;;5032454;28;20249;-60
2021/12/14 09:27:27;;;;;;;36.25;23.65;;;8.40;99.90;;;;;;5032487;28;20048;-61
2021/12/14 09:29:54;;;;;;;33.70;22.55;;;8.40;99.90;;;;;;5033214;28;20045;-61
2021/12/14 09:32:27;;;;;;;38.33;22.60;;;8.50;99.90;;;;;;5031917;28;20029;-60
2021/12/14 09:34:54;;;;;;;32.05;21.70;;;8.50;99.90;;;;;;5032770;28;20025;-60
2021/12/14 09:37:21;;;;;;;37.50;23.60;;;8.50;99.90;;;;;;5031990;28;20461;-59
2021/12/14 09:39:53;;;;;;;34.33;24.00;;;8.40;99.90;;;;;;5030971;28;20228;-60
2021/12/14 09:42:29;;;;;;;33.05;22.58;;;8.40;99.90;;;;;;5032428;28;20033;-61
2021/12/14 09:44:59;;;;;;;33.13;22.42;;;8.50;99.90;;;;;;5031532;28;20080;-61
2021/12/14 09:47:30;;;;;;;36.17;21.45;;;8.50;99.90;;;;;;5033321;28;20025;-62
2021/12/14 09:50:02;;;;;;;39.35;25.67;;;8.40;99.90;;;;;;5032414;28;20497;-61
2021/12/14 09:52:32;;;;;;;36.10;23.85;;;8.50;99.90;;;;;;5033111;28;20207;-62
2021/12/14 09:55:04;;;;;;;39.65;24.10;;;8.40;99.90;;;;;;5032939;28;20088;-62
2021/12/14 09:57:34;;;;;;;33.92;24.15;;;8.40;99.90;;;;;;5031493;28;20541;-61
2021/12/14 10:00:08;;;;;;;28.23;20.88;;;8.40;99.90;;;;;;5032024;28;20128;-63
2021/12/14 10:02:39;;;;;;;37.83;24.00;;;8.40;99.90;;;;;;5032122;28;20108;-62
2021/12/14 10:05:16;;;;;;;37.55;25.70;;;8.50;99.90;;;;;;5031342;28;20021;-62
2021/12/14 10:07:42;;;;;;;37.20;24.08;;;8.50;99.90;;;;;;5031079;28;20134;-61
2021/12/14 10:10:13;;;;;;;31.48;21.30;;;8.60;99.90;;;;;;5031297;28;20410;-67
2021/12/14 10:12:51;;;;;;;29.67;19.25;;;9.40;99.90;;;;;;5030715;28;20120;-71
2021/12/14 10:15:26;;;;;;;23.65;14.65;;;10.30;99.90;;;;;;5031389;28;20021;-63
2021/12/14 10:17:57;;;;;;;33.10;22.00;;;10.80;99.90;;;;;;5030760;28;20033;-61
2021/12/14 10:20:30;;;;;;;34.50;21.83;;;10.10;99.90;;;;;;5033073;28;20447;-60
2021/12/14 10:22:58;;;;;;;34.70;22.33;;;9.70;99.90;;;;;;5030777;28;20590;-61
2021/12/14 10:25:26;;;;;;;41.33;24.65;;;9.10;99.90;;;;;;5031542;28;20026;-62
2021/12/14 10:27:53;;;;;;;39.22;23.35;;;8.70;99.90;;;;;;5031989;28;20033;-62
2021/12/14 10:30:42;;;;;;;38.42;22.83;;;8.40;99.90;;;;;;5031314;28;20088;-62
2021/12/14 10:33:09;;;;;;;37.00;23.63;;;8.50;99.90;;;;;;5015626;28;20037;-65
2021/12/14 10:35:45;;;;;;;34.28;20.70;;;8.50;99.90;;;;;;5031159;28;20060;-64
2021/12/14 10:43:35;;;;;;;35.45;22.13;;;8.40;99.90;;;;;;5020289;28;20439;-70
2021/12/14 10:46:08;;;;;;;34.17;21.90;;;8.30;99.90;;;;;;5031061;28;20116;-61
2021/12/14 10:48:40;;;;;;;37.30;21.75;;;8.40;99.90;;;;;;5030760;28;20050;-63
2021/12/14 10:51:09;;;;;;;41.55;22.35;;;8.30;99.90;;;;;;5030421;28;20519;-62
2021/12/14 10:53:36;;;;;;;38.35;22.08;;;8.30;99.90;;;;;;5047125;28;20483;-61
2021/12/14 10:56:13;;;;;;;33.53;21.45;;;8.20;99.90;;;;;;5031418;28;20025;-61
2021/12/14 10:58:42;;;;;;;34.67;20.70;;;8.20;99.90;;;;;;5014792;28;20029;-61
2021/12/14 11:01:13;;;;;;;35.95;21.88;;;8.20;99.90;;;;;;5030740;28;20033;-62
2021/12/14 11:03:48;;;;;;;34.30;22.33;;;8.30;99.90;;;;;;5046216;28;20028;-63
2021/12/14 11:06:17;;;;;;;34.33;21.98;;;8.30;99.90;;;;;;5030591;28;20044;-61
2021/12/14 11:08:56;;;;;;;32.90;20.98;;;8.40;99.90;;;;;;5030855;28;20030;-61
2021/12/14 11:11:34;;;;;;;38.28;22.88;;;8.20;99.90;;;;;;5031638;28;20032;-60
2021/12/14 11:14:06;;;;;;;35.78;21.83;;;8.10;99.90;;;;;;5030830;28;20064;-61
2021/12/14 11:19:50;;;;;;;31.85;21.58;;;8.20;99.90;;;;;;5020766;28;20064;-64
2021/12/14 11:22:18;;;;;;;36.10;21.65;;;8.10;99.90;;;;;;5025489;28;20397;-60
2021/12/14 11:24:50;;;;;;;36.90;21.63;;;8.10;99.90;;;;;;5024762;28;20118;-61
2021/12/14 11:27:47;;;;;;;34.80;21.63;;;8.10;99.90;;;;;;5011159;28;20072;-62
2021/12/14 11:30:22;;;;;;;39.35;20.33;;;8.20;99.90;;;;;;5018429;28;20053;-61
2021/12/14 11:33:01;;;;;;;37.70;21.15;;;8.30;99.90;;;;;;5025589;28;20034;-62
2021/12/14 11:35:28;;;;;;;32.50;20.27;;;8.30;99.90;;;;;;5027593;28;20074;-62
2021/12/14 11:37:58;;;;;;;34.00;21.17;;;8.20;99.90;;;;;;5027150;28;20056;-61
2021/12/14 11:40:26;;;;;;;39.92;21.30;;;8.10;99.90;;;;;;5025515;28;20084;-62
2021/12/14 11:43:07;;;;;;;34.60;19.58;;;8.20;99.90;;;;;;5021157;28;20470;-59
2021/12/14 11:45:35;;;;;;;32.25;20.35;;;8.30;99.90;;;;;;5027068;28;20048;-62
2021/12/14 11:48:01;;;;;;;33.45;20.88;;;8.30;99.90;;;;;;5028173;28;20615;-60
2021/12/14 11:50:41;;;;;;;33.50;20.15;;;8.20;99.90;;;;;;5012199;28;20033;-61
2021/12/14 11:53:07;;;;;;;38.58;21.00;;;8.30;99.90;;;;;;5029563;28;20371;-60
2021/12/14 11:55:44;;;;;;;39.78;21.02;;;8.20;99.90;;;;;;5018989;28;20032;-61
2021/12/14 11:58:36;;;;;;;34.60;20.25;;;8.10;99.90;;;;;;5020519;28;20038;-61
2021/12/14 12:01:14;;;;;;;35.75;20.15;;;8.20;99.90;;;;;;5020700;28;20041;-60
2021/12/14 12:03:49;;;;;;;38.53;21.38;;;8.20;99.90;;;;;;5028333;28;20037;-63
2021/12/14 12:09:45;;;;;;;33.72;19.50;;;8.40;99.90;;;;;;5015294;28;20041;-61
2021/12/14 12:12:17;;;;;;;34.58;19.77;;;8.40;99.90;;;;;;4991293;28;20034;-62
2021/12/14 12:14:46;;;;;;;30.38;19.92;;;8.40;99.90;;;;;;5012693;28;20119;-64
2021/12/14 12:17:21;;;;;;;39.67;19.60;;;8.30;99.90;;;;;;5030376;28;20446;-61
2021/12/14 12:19:57;;;;;;;34.78;20.27;;;8.20;99.90;;;;;;5034154;28;20485;-62
2021/12/14 12:22:24;;;;;;;40.35;21.50;;;8.20;99.90;;;;;;5014998;28;20025;-62
2021/12/14 12:24:53;;;;;;;35.40;20.05;;;8.30;99.90;;;;;;5019965;28;20034;-58
2021/12/14 12:27:18;;;;;;;37.38;22.13;;;8.40;99.90;;;;;;5014079;28;20096;-66
2021/12/14 12:29:45;;;;;;;33.08;20.60;;;8.40;99.90;;;;;;5013995;28;20388;-61
2021/12/14 12:32:20;;;;;;;35.55;20.60;;;8.30;99.90;;;;;;5014320;28;20121;-61
2021/12/14 12:34:48;;;;;;;32.70;19.10;;;8.50;99.90;;;;;;5012473;28;20464;-62
2021/12/14 12:37:14;;;;;;;31.52;20.25;;;8.50;99.90;;;;;;5020199;28;20104;-66
2021/12/14 12:39:49;;;;;;;31.83;18.60;;;8.50;99.90;;;;;;5016864;28;20026;-61
2021/12/14 12:42:16;;;;;;;40.70;20.35;;;8.60;99.90;;;;;;5028145;28;20033;-62
2021/12/14 12:44:43;;;;;;;34.75;20.90;;;8.60;99.90;;;;;;5031024;28;20059;-63
2021/12/14 12:47:17;;;;;;;30.05;19.38;;;8.60;99.90;;;;;;5032886;28;20041;-61
2021/12/14 12:49:55;;;;;;;36.50;20.98;;;8.70;99.90;;;;;;5035287;28;20025;-69
2021/12/14 12:52:32;;;;;;;30.45;19.05;;;8.70;99.90;;;;;;5020776;28;20058;-63
2021/12/14 12:55:01;;;;;;;34.15;19.40;;;8.70;99.90;;;;;;5026196;28;20271;-61
2021/12/14 12:57:57;;;;;;;39.20;20.35;;;8.70;99.90;;;;;;5032253;28;20025;-63
2021/12/14 13:00:27;;;;;;;25.55;17.02;;;8.70;99.90;;;;;;4988767;28;20042;-61
2021/12/14 13:03:13;;;;;;;30.10;18.95;;;8.70;99.90;;;;;;4989964;28;20031;-60
2021/12/14 13:06:06;;;;;;;33.97;20.02;;;8.80;99.90;;;;;;4983219;28;20065;-70
2021/12/14 13:08:47;;;;;;;29.25;19.33;;;8.80;99.90;;;;;;4988204;28;20196;-60
2021/12/14 13:11:16;;;;;;;32.13;18.95;;;8.80;99.90;;;;;;4991535;28;20416;-60
2021/12/14 13:13:55;;;;;;;33.00;19.35;;;8.80;99.90;;;;;;4989211;28;20129;-61
2021/12/14 13:16:26;;;;;;;30.30;18.20;;;8.80;99.90;;;;;;4984287;28;20038;-61
2021/12/14 13:18:56;;;;;;;30.13;18.42;;;8.80;99.90;;;;;;4989626;28;20107;-61
2021/12/14 13:21:24;;;;;;;30.33;19.00;;;8.80;99.90;;;;;;4993056;28;20022;-61
2021/12/14 13:23:59;;;;;;;30.23;17.30;;;8.70;99.90;;;;;;4974425;28;20090;-61
2021/12/14 13:26:39;;;;;;;32.95;17.95;;;8.70;99.90;;;;;;4990355;28;20045;-61
2021/12/14 13:29:25;;;;;;;26.73;17.40;;;8.80;99.90;;;;;;4987811;28;20377;-64
2021/12/14 13:31:53;;;;;;;26.70;16.08;;;8.80;99.90;;;;;;4953969;28;20066;-64
2021/12/14 13:34:25;;;;;;;24.65;15.65;;;8.80;99.90;;;;;;4988619;28;20041;-72
2021/12/14 13:36:52;;;;;;;;;;;8.90;99.90;;;;;;5001591;28;20451;-63
2021/12/14 13:39:18;;;;;;;30.55;15.65;;;8.90;99.90;;;;;;5026015;28;19912;-63
2021/12/14 13:42:07;;;;;;;27.73;16.30;;;8.90;99.90;;;;;;5022246;28;20017;-62
2021/12/14 13:44:40;;;;;;;26.67;16.05;;;8.90;99.90;;;;;;5009873;28;20045;-62
2021/12/14 13:47:10;;;;;;;27.73;16.45;;;9.00;99.90;;;;;;5024015;28;20064;-64